Time;durP1;ratioP1;P1;durP2;ratioP2;P2;SDS_P1;SDS_P2;PMS_P1;PMS_P2;Temp;Humidity;BMP_temperature;BMP_pressure;BME280_temperature;BME280_humidity;BME280_pressure;Samples;Min_cycle;Max_cycle;Signal;HPM_P1;HPM_P2
2022/04/11 00:00:35;;;;;;;1.50;1.25;;;13.80;58.70;;;;;;5053376;28;20079;-72
2022/04/11 00:03:02;;;;;;;2.08;1.30;;;13.70;54.80;;;;;;5044231;28;20131;-71
2022/04/11 00:05:30;;;;;;;1.88;1.33;;;13.90;58.50;;;;;;5053538;28;20052;-71
2022/04/11 00:07:57;;;;;;;1.30;1.05;;;13.60;58.60;;;;;;5053500;28;20056;-71
2022/04/11 00:10:24;;;;;;;1.42;1.25;;;13.60;58.70;;;;;;5053823;28;20467;-72
2022/04/11 00:12:50;;;;;;;2.45;1.40;;;13.80;56.10;;;;;;5049175;28;20478;-71
2022/04/11 00:15:17;;;;;;;1.40;1.17;;;13.60;58.70;;;;;;5034825;28;20064;-71
2022/04/11 00:17:44;;;;;;;1.58;1.05;;;;;;;;;;5033637;28;20059;-72
2022/04/11 00:20:11;;;;;;;1.52;1.20;;;13.60;58.70;;;;;;5033563;28;20063;-71
2022/04/11 00:22:39;;;;;;;1.30;1.20;;;13.70;50.70;;;;;;5034708;28;20053;-72
2022/04/11 00:25:07;;;;;;;2.92;1.38;;;;;;;;;;5034800;28;20055;-72
2022/04/11 00:27:34;;;;;;;1.58;1.30;;;;;;;;;;5034548;28;20487;-72
2022/04/11 00:30:01;;;;;;;1.73;1.30;;;;;;;;;;5034177;28;20045;-71
2022/04/11 00:32:28;;;;;;;1.52;1.20;;;13.70;58.80;;;;;;5033490;28;20054;-71
2022/04/11 00:34:54;;;;;;;1.80;1.33;;;13.60;58.80;;;;;;5033580;28;20064;-72
2022/04/11 00:37:21;;;;;;;1.80;1.30;;;13.60;57.70;;;;;;5033294;28;20069;-71
2022/04/11 00:39:49;;;;;;;1.80;1.20;;;13.50;58.80;;;;;;5033052;28;20060;-72
2022/04/11 00:42:16;;;;;;;1.80;1.20;;;13.70;58.80;;;;;;5032904;28;20071;-72
2022/04/11 00:44:43;;;;;;;1.77;1.30;;;;;;;;;;5047217;28;20059;-72
2022/04/11 00:47:10;;;;;;;1.98;1.35;;;13.50;58.50;;;;;;5054101;28;20059;-72
2022/04/11 00:49:36;;;;;;;1.55;1.17;;;13.70;58.60;;;;;;5052850;28;20049;-71
2022/04/11 00:52:04;;;;;;;2.35;1.40;;;13.50;50.60;;;;;;5052867;28;20513;-71
2022/04/11 00:54:31;;;;;;;1.92;1.30;;;13.50;58.80;;;;;;5052848;28;20048;-72
2022/04/11 00:56:59;;;;;;;2.08;1.30;;;13.60;55.10;;;;;;5051130;28;20049;-71
2022/04/11 00:59:26;;;;;;;2.08;1.40;;;;;;;;;;5032756;28;20071;-71
2022/04/11 01:01:52;;;;;;;1.55;1.20;;;13.40;58.60;;;;;;5032560;28;20427;-72
2022/04/11 01:04:27;;;;;;;1.95;1.40;;;;;;;;;;5034044;28;20062;-71
2022/04/11 01:06:54;;;;;;;2.15;1.50;;;13.40;50.70;;;;;;5032540;28;20049;-71
2022/04/11 01:09:21;;;;;;;2.22;1.67;;;13.30;58.90;;;;;;5032506;28;20056;-71
2022/04/11 01:11:48;;;;;;;1.75;1.23;;;;;;;;;;5038282;28;20048;-72
2022/04/11 01:14:16;;;;;;;2.40;1.60;;;13.40;57.30;;;;;;5053363;28;20041;-71
2022/04/11 01:16:47;;;;;;;1.30;1.20;;;13.40;58.70;;;;;;5052217;28;20053;-72
2022/04/11 01:19:14;;;;;;;1.75;1.27;;;13.60;55.90;;;;;;5053429;28;20135;-71
2022/04/11 01:21:42;;;;;;;1.77;1.30;;;13.30;58.90;;;;;;5052058;28;20055;-71
2022/04/11 01:24:09;;;;;;;1.30;1.20;;;13.40;58.80;;;;;;5051964;28;20049;-72
2022/04/11 01:26:35;;;;;;;1.40;1.20;;;13.50;59.10;;;;;;5039285;28;20067;-72
2022/04/11 01:29:04;;;;;;;2.22;1.45;;;;;;;;;;5032217;28;20063;-72
2022/04/11 01:31:30;;;;;;;1.40;1.30;;;13.40;57.40;;;;;;5032350;28;20056;-71
2022/04/11 01:33:57;;;;;;;2.10;1.25;;;13.40;58.00;;;;;;5033202;28;20056;-71
2022/04/11 01:36:24;;;;;;;2.42;1.20;;;;;;;;;;5032131;28;20057;-71
2022/04/11 01:38:52;;;;;;;1.80;1.20;;;13.10;58.40;;;;;;5032135;28;20145;-71
2022/04/11 01:41:20;;;;;;;1.77;1.33;;;13.40;58.80;;;;;;5050039;28;20052;-71
2022/04/11 01:43:48;;;;;;;1.92;1.30;;;;;;;;;;5052136;28;20053;-72
2022/04/11 01:46:15;;;;;;;1.63;1.20;;;;;;;;;;5051954;28;20140;-71
2022/04/11 01:48:41;;;;;;;1.65;1.30;;;13.00;58.50;;;;;;5053065;28;20049;-72
2022/04/11 01:51:08;;;;;;;2.17;1.20;;;13.40;58.70;;;;;;5052426;28;20397;-72
2022/04/11 01:53:35;;;;;;;1.30;1.10;;;13.40;54.90;;;;;;5048624;28;20049;-71
2022/04/11 01:56:03;;;;;;;1.30;1.20;;;13.40;58.60;;;;;;5031760;28;20053;-72
2022/04/11 01:58:30;;;;;;;1.83;1.20;;;13.40;58.60;;;;;;5032887;28;20118;-72
2022/04/11 02:00:58;;;;;;;2.10;1.15;;;;;;;;;;5031499;28;20425;-72
2022/04/11 02:03:25;;;;;;;1.65;1.30;;;13.40;55.60;;;;;;5031464;28;20060;-71
2022/04/11 02:05:52;;;;;;;1.60;1.23;;;13.40;58.90;;;;;;5031724;28;20550;-72
2022/04/11 02:08:19;;;;;;;1.98;1.35;;;;;;;;;;5041910;28;20473;-72
2022/04/11 02:10:46;;;;;;;1.40;1.10;;;13.50;58.60;;;;;;5049393;28;20419;-71
2022/04/11 02:13:14;;;;;;;1.67;1.30;;;13.60;57.60;;;;;;5031439;28;20057;-72
2022/04/11 02:15:40;;;;;;;2.50;1.40;;;13.50;58.70;;;;;;5031489;28;20053;-72
2022/04/11 02:18:07;;;;;;;2.33;1.50;;;13.70;52.60;;;;;;5032568;28;20053;-71
2022/04/11 02:20:34;;;;;;;1.63;1.20;;;13.20;58.80;;;;;;5031422;28;20440;-72
2022/04/11 02:23:01;;;;;;;1.85;1.38;;;13.30;58.90;;;;;;5046049;28;20053;-72
2022/04/11 02:25:28;;;;;;;1.50;1.20;;;13.60;54.20;;;;;;5051203;28;20140;-71
2022/04/11 02:27:55;;;;;;;1.20;1.10;;;13.30;58.90;;;;;;5050781;28;20432;-72
2022/04/11 02:30:23;;;;;;;1.65;1.20;;;13.40;59.10;;;;;;5051994;28;20064;-72
2022/04/11 02:32:50;;;;;;;1.50;1.30;;;;;;;;;;5050711;28;20055;-72
2022/04/11 02:35:17;;;;;;;2.58;1.50;;;13.20;58.60;;;;;;5049811;28;20059;-72
2022/04/11 02:37:44;;;;;;;1.80;1.30;;;13.40;54.90;;;;;;5030556;28;20081;-72
2022/04/11 02:40:12;;;;;;;1.67;1.30;;;13.20;58.60;;;;;;5030651;28;20053;-72
2022/04/11 02:42:41;;;;;;;2.78;1.48;;;13.10;58.60;;;;;;5030736;28;20045;-72
2022/04/11 02:45:08;;;;;;;1.83;1.35;;;13.10;53.60;;;;;;5031029;28;20057;-72
2022/04/11 02:47:36;;;;;;;2.15;1.23;;;13.70;59.10;;;;;;5031040;28;20053;-72
2022/04/11 02:50:03;;;;;;;1.92;1.10;;;13.20;58.70;;;;;;5037436;28;20493;-72
2022/04/11 02:52:30;;;;;;;2.03;1.27;;;;;;;;;;5050902;28;20049;-71
2022/04/11 02:54:57;;;;;;;1.60;1.20;;;13.30;58.90;;;;;;5051713;28;20087;-72
2022/04/11 02:57:24;;;;;;;2.05;1.30;;;13.20;58.90;;;;;;5050366;28;20059;-72
2022/04/11 02:59:50;;;;;;;1.50;1.15;;;13.30;57.10;;;;;;5051437;28;20045;-71
2022/04/11 03:02:17;;;;;;;2.10;1.40;;;13.50;58.70;;;;;;5050446;28;20047;-71
2022/04/11 03:04:46;;;;;;;1.58;1.30;;;13.20;58.80;;;;;;5038164;28;20067;-72
2022/04/11 03:07:13;;;;;;;1.60;1.13;;;;;;;;;;5047070;28;20057;-72
2022/04/11 03:09:39;;;;;;;2.00;1.20;;;13.30;58.90;;;;;;5051452;28;20059;-72
2022/04/11 03:12:07;;;;;;;1.48;1.17;;;13.30;56.60;;;;;;5050600;28;20053;-72
2022/04/11 03:14:34;;;;;;;2.05;1.42;;;13.30;58.90;;;;;;5050631;28;20060;-72
2022/04/11 03:17:01;;;;;;;1.95;1.27;;;13.40;54.20;;;;;;5050330;28;20478;-71
2022/04/11 03:19:28;;;;;;;1.92;1.33;;;13.30;58.70;;;;;;5033485;28;20054;-72
2022/04/11 03:21:56;;;;;;;1.35;1.13;;;12.90;51.60;;;;;;5034661;28;20060;-71
2022/04/11 03:24:23;;;;;;;1.70;1.23;;;13.40;57.30;;;;;;5034716;28;20145;-72
2022/04/11 03:26:50;;;;;;;2.83;1.27;;;13.20;58.40;;;;;;5034692;28;20053;-72
2022/04/11 03:29:16;;;;;;;1.27;1.15;;;13.20;58.70;;;;;;5034510;28;20494;-72
2022/04/11 03:31:43;;;;;;;2.03;1.38;;;;;;;;;;5037760;28;20048;-71
2022/04/11 03:34:10;;;;;;;1.45;1.10;;;13.50;58.60;;;;;;5054668;28;20052;-72
2022/04/11 03:36:37;;;;;;;1.55;1.15;;;;;;;;;;5054333;28;20057;-72
2022/04/11 03:39:06;;;;;;;1.33;1.10;;;13.30;50.40;;;;;;5054113;28;20091;-72
2022/04/11 03:41:32;;;;;;;1.33;1.13;;;13.30;58.40;;;;;;5054176;28;20049;-72
2022/04/11 03:43:59;;;;;;;1.80;1.20;;;;;;;;;;5054257;28;20052;-72
2022/04/11 03:46:27;;;;;;;2.40;1.38;;;13.40;58.70;;;;;;5045846;28;20055;-72
2022/04/11 03:48:54;;;;;;;1.98;1.13;;;13.40;58.30;;;;;;5034241;28;20071;-71
2022/04/11 03:51:21;;;;;;;1.40;1.15;;;13.50;58.80;;;;;;5033887;28;20406;-72
2022/04/11 03:53:48;;;;;;;1.98;1.45;;;;;;;;;;5034035;28;20057;-71
2022/04/11 03:56:17;;;;;;;1.80;1.20;;;13.50;58.50;;;;;;5034340;28;20061;-72
2022/04/11 03:58:44;;;;;;;1.83;1.40;;;;;;;;;;5033851;28;20054;-71
2022/04/11 04:01:11;;;;;;;1.67;1.13;;;13.40;58.60;;;;;;5048171;28;20055;-72
2022/04/11 04:03:38;;;;;;;1.33;1.13;;;13.40;58.40;;;;;;5053762;28;20055;-72
2022/04/11 04:06:04;;;;;;;2.03;1.40;;;13.40;58.10;;;;;;5054950;28;20055;-71
2022/04/11 04:08:31;;;;;;;1.73;1.25;;;13.30;58.30;;;;;;5053570;28;20052;-72
2022/04/11 04:10:58;;;;;;;1.13;1.02;;;;;;;;;;5053525;28;20053;-71
2022/04/11 04:13:26;;;;;;;1.67;1.20;;;13.40;58.60;;;;;;5053262;28;20052;-72
2022/04/11 04:15:53;;;;;;;1.85;1.25;;;13.50;58.60;;;;;;5033484;28;20136;-72
2022/04/11 04:18:20;;;;;;;1.50;1.20;;;13.50;58.40;;;;;;5033807;28;20096;-72
2022/04/11 04:20:47;;;;;;;1.60;1.08;;;13.50;58.50;;;;;;5033430;28;20069;-72
2022/04/11 04:23:14;;;;;;;2.05;1.30;;;13.60;58.40;;;;;;5033301;28;20050;-72
2022/04/11 04:25:41;;;;;;;1.65;1.15;;;13.30;52.80;;;;;;5033719;28;20054;-72
2022/04/11 04:28:08;;;;;;;1.85;1.15;;;;;;;;;;5038836;28;20056;-72
2022/04/11 04:30:36;;;;;;;3.10;1.48;;;13.50;52.80;;;;;;5052879;28;20059;-72
2022/04/11 04:33:03;;;;;;;1.70;1.17;;;;;;;;;;5053301;28;20565;-72
2022/04/11 04:35:30;;;;;;;1.30;1.10;;;13.40;58.20;;;;;;5053349;28;20053;-72
2022/04/11 04:37:57;;;;;;;1.40;1.10;;;;;;;;;;5053240;28;20067;-72
2022/04/11 04:40:24;;;;;;;1.52;1.20;;;13.30;58.40;;;;;;5053057;28;20052;-72
2022/04/11 04:42:51;;;;;;;2.08;1.30;;;13.50;58.50;;;;;;5041105;28;20049;-72
2022/04/11 04:45:18;;;;;;;4.05;1.30;;;13.20;57.90;;;;;;5033204;28;20068;-71
2022/04/11 04:47:46;;;;;;;1.85;1.33;;;13.30;58.40;;;;;;5032972;28;20060;-72
2022/04/11 04:50:13;;;;;;;2.47;1.17;;;13.40;58.40;;;;;;5032939;28;20085;-72
2022/04/11 04:52:39;;;;;;;1.90;1.30;;;13.30;54.10;;;;;;5032752;28;20071;-72
2022/04/11 04:55:07;;;;;;;1.45;1.27;;;13.50;58.20;;;;;;5033085;28;20136;-72
2022/04/11 04:57:34;;;;;;;1.33;1.02;;;13.30;58.20;;;;;;5049759;28;20064;-72
2022/04/11 05:00:01;;;;;;;2.08;1.33;;;12.80;58.10;;;;;;5052666;28;20056;-72
2022/04/11 05:02:28;;;;;;;1.40;1.20;;;;;;;;;;5052105;28;20059;-71
2022/04/11 05:04:56;;;;;;;2.17;1.20;;;13.50;58.20;;;;;;5052627;28;20136;-72
2022/04/11 05:07:23;;;;;;;1.60;1.27;;;13.50;58.20;;;;;;5052710;28;20136;-72
2022/04/11 05:09:50;;;;;;;1.67;1.23;;;;;;;;;;5049901;28;20059;-72
2022/04/11 05:12:16;;;;;;;2.00;1.35;;;13.40;58.20;;;;;;5032399;28;20062;-72
2022/04/11 05:14:43;;;;;;;2.50;1.10;;;13.10;58.00;;;;;;5032623;28;20053;-72
2022/04/11 05:17:10;;;;;;;2.13;1.40;;;;;;;;;;5032626;28;20053;-71
2022/04/11 05:19:37;;;;;;;1.40;1.10;;;13.40;58.50;;;;;;5032481;28;20064;-72
2022/04/11 05:22:07;;;;;;;2.15;1.30;;;13.50;58.40;;;;;;5032345;28;20443;-72
2022/04/11 05:24:34;;;;;;;1.80;1.30;;;13.50;54.40;;;;;;5040014;28;20049;-72
2022/04/11 05:27:04;;;;;;;1.65;1.20;;;;;;;;;;5053449;28;20414;-71
2022/04/11 05:29:31;;;;;;;2.17;1.30;;;13.50;58.20;;;;;;5052049;28;20053;-72
2022/04/11 05:31:58;;;;;;;1.65;1.13;;;;;;;;;;5051904;28;20683;-72
2022/04/11 05:34:25;;;;;;;2.15;1.30;;;13.40;53.60;;;;;;5052248;28;20049;-72
2022/04/11 05:36:52;;;;;;;1.52;1.38;;;13.30;58.00;;;;;;5052037;28;20057;-72
2022/04/11 05:39:20;;;;;;;1.83;1.38;;;13.60;53.50;;;;;;5037710;28;20059;-72
2022/04/11 05:41:47;;;;;;;2.63;1.48;;;;;;;;;;5031180;28;20057;-72
2022/04/11 05:44:13;;;;;;;2.90;1.40;;;13.60;58.40;;;;;;5032253;28;20409;-72
2022/04/11 05:46:40;;;;;;;2.30;1.30;;;;;;;;;;5032844;28;20080;-72
2022/04/11 05:49:07;;;;;;;1.27;1.17;;;13.30;57.90;;;;;;5032143;28;20053;-72
2022/04/11 05:51:34;;;;;;;2.58;1.40;;;;;;;;;;5031807;28;20140;-72
2022/04/11 05:54:01;;;;;;;1.67;1.30;;;;;;;;;;5016180;28;20060;-72
2022/04/11 05:56:29;;;;;;;2.15;1.30;;;13.70;58.10;;;;;;5032073;28;20053;-72
2022/04/11 05:58:56;;;;;;;1.60;1.20;;;13.50;58.40;;;;;;5032008;28;20057;-72
2022/04/11 06:01:23;;;;;;;1.60;1.10;;;13.30;57.90;;;;;;5031287;28;20059;-71
2022/04/11 06:03:50;;;;;;;2.20;1.30;;;13.80;58.50;;;;;;5031519;28;20051;-72
2022/04/11 06:06:18;;;;;;;1.80;1.20;;;;;;;;;;5036194;28;20432;-71
2022/04/11 06:08:44;;;;;;;2.60;1.50;;;13.50;53.80;;;;;;5051377;28;20049;-72
2022/04/11 06:11:11;;;;;;;1.67;1.30;;;13.40;52.90;;;;;;5051339;28;20059;-72
2022/04/11 06:13:42;;;;;;;1.50;1.25;;;13.40;50.00;;;;;;5051340;28;20075;-72
2022/04/11 06:16:08;;;;;;;2.25;1.40;;;13.50;58.30;;;;;;5051558;28;20053;-72
2022/04/11 06:18:35;;;;;;;3.17;1.27;;;;;;;;;;5051427;28;20604;-72
2022/04/11 06:21:02;;;;;;;2.20;1.52;;;13.60;52.80;;;;;;5051082;28;20056;-72
2022/04/11 06:23:29;;;;;;;2.22;1.27;;;13.60;55.40;;;;;;5050255;28;20044;-72
2022/04/11 06:25:56;;;;;;;2.08;1.45;;;;;;;;;;5051051;28;20049;-71
2022/04/11 06:28:23;;;;;;;1.70;1.20;;;;;;;;;;5051020;28;20062;-72
2022/04/11 06:30:51;;;;;;;2.25;1.40;;;13.50;49.90;;;;;;5050819;28;20063;-71
2022/04/11 06:33:19;;;;;;;1.92;1.25;;;;;;;;;;5051174;28;20055;-71
2022/04/11 06:35:45;;;;;;;2.50;1.20;;;13.60;57.80;;;;;;5050678;28;20060;-70
2022/04/11 06:38:12;;;;;;;1.75;1.35;;;;;;;;;;5051263;28;20055;-70
2022/04/11 06:40:39;;;;;;;1.70;1.30;;;13.60;58.00;;;;;;5046102;28;20059;-71
2022/04/11 06:43:06;;;;;;;1.98;1.40;;;;;;;;;;5037537;28;20049;-70
2022/04/11 06:45:33;;;;;;;1.80;1.40;;;13.70;57.90;;;;;;5031907;28;20132;-70
2022/04/11 06:48:01;;;;;;;2.00;1.40;;;13.50;55.70;;;;;;5039187;28;20237;-68
2022/04/11 06:50:28;;;;;;;2.00;1.30;;;13.60;57.80;;;;;;5030519;28;20053;-68
2022/04/11 06:52:54;;;;;;;1.58;1.20;;;13.70;55.10;;;;;;5031155;28;20064;-68
2022/04/11 06:55:21;;;;;;;1.58;1.15;;;13.80;58.10;;;;;;5031388;28;20447;-70
2022/04/11 06:57:48;;;;;;;3.25;1.45;;;;;;;;;;5050962;28;20065;-69
2022/04/11 07:00:16;;;;;;;3.72;1.35;;;13.70;51.70;;;;;;5044263;28;20068;-70
2022/04/11 07:02:43;;;;;;;3.92;1.85;;;;;;;;;;5039377;28;20083;-70
2022/04/11 07:05:11;;;;;;;1.77;1.40;;;13.70;58.20;;;;;;5041228;28;20056;-70
2022/04/11 07:07:39;;;;;;;2.15;1.38;;;13.60;57.70;;;;;;5042317;28;20045;-70
2022/04/11 07:10:09;;;;;;;2.42;1.40;;;13.90;58.00;;;;;;5040903;28;20056;-70
2022/04/11 07:12:38;;;;;;;2.65;1.40;;;14.70;58.50;;;;;;5039411;28;20471;-70
2022/04/11 07:15:05;;;;;;;1.83;1.33;;;13.80;58.10;;;;;;5035714;28;20049;-70
2022/04/11 07:17:32;;;;;;;3.20;1.20;;;13.90;58.10;;;;;;5039536;28;20420;-70
2022/04/11 07:19:59;;;;;;;2.13;1.60;;;;;;;;;;5042085;28;20041;-70
2022/04/11 07:22:27;;;;;;;1.50;1.20;;;14.00;58.10;;;;;;5040677;28;20465;-70
2022/04/11 07:24:54;;;;;;;2.13;1.50;;;13.90;57.60;;;;;;5040611;28;20379;-70
2022/04/11 07:27:21;;;;;;;2.42;1.40;;;;;;;;;;5030823;28;20083;-70
2022/04/11 07:29:48;;;;;;;1.80;1.33;;;14.10;57.50;;;;;;5031197;28;20506;-70
2022/04/11 07:32:15;;;;;;;2.35;1.40;;;13.90;57.30;;;;;;5030725;28;20132;-70
2022/04/11 07:34:42;;;;;;;2.38;1.60;;;14.00;57.70;;;;;;5030730;28;20045;-70
2022/04/11 07:37:09;;;;;;;2.75;1.45;;;14.00;57.70;;;;;;5030707;28;20053;-69
2022/04/11 07:39:37;;;;;;;3.40;1.40;;;14.50;51.00;;;;;;5030247;28;20058;-70
2022/04/11 07:42:04;;;;;;;1.98;1.30;;;14.20;57.60;;;;;;5031677;28;20136;-70
2022/04/11 07:44:30;;;;;;;2.45;1.40;;;14.10;57.50;;;;;;5030247;28;20409;-70
2022/04/11 07:46:58;;;;;;;3.17;1.40;;;;;;;;;;5039650;28;20118;-70
2022/04/11 07:49:25;;;;;;;2.28;1.35;;;;;;;;;;5043964;28;20056;-70
2022/04/11 07:51:52;;;;;;;3.08;1.40;;;;;;;;;;5031670;28;20053;-70
2022/04/11 07:54:18;;;;;;;2.63;1.40;;;14.50;54.40;;;;;;5039070;28;20053;-69
2022/04/11 07:56:46;;;;;;;2.00;1.35;;;13.90;57.40;;;;;;5050369;28;20053;-70
2022/04/11 07:59:13;;;;;;;1.88;1.20;;;15.20;57.70;;;;;;5051360;28;20081;-70
2022/04/11 08:01:40;;;;;;;2.25;1.42;;;;;;;;;;5050777;28;20136;-70
2022/04/11 08:04:07;;;;;;;2.58;1.30;;;14.30;57.30;;;;;;5051502;28;20132;-70
2022/04/11 08:06:34;;;;;;;2.45;1.30;;;14.70;57.20;;;;;;5053754;28;20448;-70
2022/04/11 08:09:00;;;;;;;2.00;1.40;;;15.10;55.50;;;;;;5055063;28;20053;-70
2022/04/11 08:11:27;;;;;;;3.20;1.50;;;14.80;57.00;;;;;;5053361;28;20063;-70
2022/04/11 08:13:55;;;;;;;1.98;1.40;;;14.70;56.90;;;;;;5054068;28;20541;-70
2022/04/11 08:16:22;;;;;;;1.42;1.20;;;14.80;57.10;;;;;;5054933;28;20049;-70
2022/04/11 08:18:49;;;;;;;3.15;1.50;;;15.00;55.60;;;;;;5050389;28;20112;-70
2022/04/11 08:21:15;;;;;;;1.42;1.17;;;14.90;54.30;;;;;;5048867;28;20080;-70
2022/04/11 08:23:42;;;;;;;1.60;1.20;;;;;;;;;;5054652;28;20132;-72
2022/04/11 08:26:09;;;;;;;2.78;1.23;;;15.70;57.10;;;;;;5053238;28;20136;-72
2022/04/11 08:28:36;;;;;;;3.08;1.23;;;15.10;57.10;;;;;;5054589;28;20044;-71
2022/04/11 08:31:04;;;;;;;12.82;2.05;;;15.20;57.20;;;;;;5053200;28;20417;-70
2022/04/11 08:33:31;;;;;;;5.45;1.90;;;;;;;;;;5053004;28;20103;-70
2022/04/11 08:35:58;;;;;;;7.53;2.17;;;15.10;56.70;;;;;;5046827;28;20056;-70
2022/04/11 08:38:25;;;;;;;6.50;1.73;;;;;;;;;;5048514;28;20225;-71
2022/04/11 08:40:55;;;;;;;4.18;1.80;;;15.00;56.40;;;;;;5050589;28;20059;-71
2022/04/11 08:43:22;;;;;;;7.72;2.03;;;14.70;56.50;;;;;;5034092;28;20083;-71
2022/04/11 08:45:49;;;;;;;5.32;2.35;;;15.30;56.40;;;;;;5033574;28;20501;-71
2022/04/11 08:48:18;;;;;;;5.85;1.90;;;15.50;55.20;;;;;;5033265;28;20056;-71
2022/04/11 08:50:44;;;;;;;3.30;1.75;;;15.40;56.60;;;;;;5039220;28;20049;-71
2022/04/11 08:53:11;;;;;;;4.78;2.00;;;;;;;;;;5036574;28;20045;-70
2022/04/11 08:55:38;;;;;;;6.18;1.60;;;15.40;56.50;;;;;;5054146;28;20044;-70
2022/04/11 08:58:05;;;;;;;4.82;2.22;;;15.50;56.20;;;;;;5053103;28;20417;-70
2022/04/11 09:00:31;;;;;;;3.28;1.50;;;15.60;56.30;;;;;;5053941;28;20123;-70
2022/04/11 09:02:58;;;;;;;4.78;1.70;;;15.50;56.30;;;;;;5052699;28;20056;-70
2022/04/11 09:05:29;;;;;;;3.65;1.60;;;15.30;56.30;;;;;;5054376;28;20409;-70
2022/04/11 09:07:56;;;;;;;6.05;1.92;;;;;;;;;;5054049;28;20083;-70
2022/04/11 09:10:24;;;;;;;3.55;1.70;;;15.90;56.50;;;;;;5052774;28;20501;-70
2022/04/11 09:12:51;;;;;;;4.03;1.80;;;15.70;56.00;;;;;;5052934;28;20409;-70
2022/04/11 09:15:18;;;;;;;4.95;1.90;;;15.70;56.00;;;;;;5052525;28;20083;-71
2022/04/11 09:17:45;;;;;;;3.53;1.65;;;15.80;56.20;;;;;;5052474;28;20131;-70
2022/04/11 09:20:13;;;;;;;3.63;1.75;;;15.60;48.40;;;;;;5052468;28;20362;-71
2022/04/11 09:22:41;;;;;;;2.88;1.58;;;15.80;56.20;;;;;;5050919;28;20064;-70
2022/04/11 09:25:09;;;;;;;3.83;1.52;;;16.00;56.00;;;;;;5052195;28;20053;-70
2022/04/11 09:27:36;;;;;;;3.35;1.60;;;15.70;56.10;;;;;;5053755;28;20126;-70
2022/04/11 09:30:03;;;;;;;3.70;1.60;;;;;;;;;;5051982;28;20057;-71
2022/04/11 09:32:30;;;;;;;4.07;1.45;;;15.90;55.70;;;;;;5052177;28;20060;-70
2022/04/11 09:34:57;;;;;;;4.47;1.75;;;;;;;;;;5052155;28;20049;-70
2022/04/11 09:37:23;;;;;;;2.85;1.55;;;15.80;55.80;;;;;;5047254;28;20132;-70
2022/04/11 09:39:57;;;;;;;2.35;1.60;;;15.80;55.80;;;;;;5033312;28;20063;-69
2022/04/11 09:42:32;;;;;;;4.22;1.85;;;16.10;55.80;;;;;;5043237;28;20055;-69
2022/04/11 09:44:59;;;;;;;2.70;1.70;;;15.70;51.00;;;;;;5043423;28;20048;-69
2022/04/11 09:47:26;;;;;;;3.58;1.50;;;16.70;56.60;;;;;;5043170;28;20490;-69
2022/04/11 09:49:53;;;;;;;2.60;1.73;;;;;;;;;;5041638;28;20057;-70
2022/04/11 09:52:20;;;;;;;3.83;1.40;;;16.00;56.30;;;;;;5041497;28;20044;-70
2022/04/11 09:54:49;;;;;;;3.03;1.55;;;16.00;56.40;;;;;;5044789;28;20067;-71
2022/04/11 09:57:18;;;;;;;6.25;1.67;;;16.20;56.30;;;;;;5042710;28;20087;-71
2022/04/11 09:59:45;;;;;;;3.78;1.55;;;16.20;56.40;;;;;;5041752;28;20048;-70
2022/04/11 10:02:12;;;;;;;3.15;1.27;;;17.00;56.50;;;;;;5040006;28;20049;-70
2022/04/11 10:04:39;;;;;;;2.30;1.13;;;15.30;56.00;;;;;;5042306;28;20478;-71
2022/04/11 10:07:09;;;;;;;2.53;1.30;;;17.10;56.70;;;;;;5034604;28;20064;-70
2022/04/11 10:09:35;;;;;;;1.92;1.30;;;16.30;52.50;;;;;;5032824;28;20053;-70
2022/04/11 10:12:03;;;;;;;2.78;1.30;;;16.70;56.30;;;;;;5031252;28;20053;-71
2022/04/11 10:14:31;;;;;;;2.38;1.20;;;15.90;51.90;;;;;;5032496;28;20581;-70
2022/04/11 10:17:00;;;;;;;3.47;1.30;;;16.60;49.30;;;;;;5031266;28;20056;-71
2022/04/11 10:19:29;;;;;;;2.85;1.27;;;16.60;56.10;;;;;;5042804;28;20045;-71
2022/04/11 10:21:58;;;;;;;2.15;1.35;;;16.70;56.00;;;;;;5052536;28;20389;-70
2022/04/11 10:24:35;;;;;;;2.90;1.50;;;16.60;48.40;;;;;;5052361;28;20147;-71
2022/04/11 10:27:16;;;;;;;2.20;1.35;;;17.60;54.80;;;;;;5051032;28;20063;-71
2022/04/11 10:29:44;;;;;;;2.15;1.13;;;16.90;50.10;;;;;;5049973;28;20059;-70
2022/04/11 10:32:11;;;;;;;2.28;1.20;;;16.60;55.50;;;;;;5040595;28;20056;-70
2022/04/11 10:34:48;;;;;;;2.13;1.20;;;17.10;52.80;;;;;;5043322;28;20088;-70
2022/04/11 10:37:16;;;;;;;4.45;1.25;;;16.10;54.90;;;;;;5051232;28;20075;-70
2022/04/11 10:39:44;;;;;;;1.63;1.00;;;16.90;55.20;;;;;;5050801;28;20053;-70
2022/04/11 10:42:22;;;;;;;2.25;0.98;;;17.30;55.80;;;;;;5050927;28;20532;-70
2022/04/11 10:44:53;;;;;;;4.30;1.40;;;15.80;55.00;;;;;;5032366;28;20050;-68
2022/04/11 10:47:36;;;;;;;3.28;1.20;;;16.90;55.30;;;;;;5035949;28;20048;-68
2022/04/11 10:50:28;;;;;;;4.03;1.20;;;17.10;51.30;;;;;;5036080;28;20063;-69
2022/04/11 10:53:15;;;;;;;2.78;1.20;;;17.10;55.20;;;;;;5036188;28;20409;-69
2022/04/11 10:55:59;;;;;;;1.60;1.08;;;17.00;48.10;;;;;;5052125;28;20053;-70
2022/04/11 10:58:40;;;;;;;2.17;1.23;;;16.80;55.20;;;;;;5051923;28;20107;-69
2022/04/11 11:01:09;;;;;;;1.98;1.00;;;17.10;55.00;;;;;;5050878;28;20486;-71
2022/04/11 11:03:35;;;;;;;1.10;1.00;;;16.90;55.00;;;;;;5051702;28;20067;-71
2022/04/11 11:06:18;;;;;;;2.03;1.23;;;16.90;54.70;;;;;;5039127;28;20056;-71
2022/04/11 11:08:45;;;;;;;2.45;1.17;;;;;;;;;;5030162;28;20045;-71
2022/04/11 11:11:26;;;;;;;2.65;1.20;;;16.60;54.80;;;;;;5030887;28;20132;-68
2022/04/11 11:13:53;;;;;;;1.98;1.00;;;16.70;55.00;;;;;;5030524;28;20049;-68
2022/04/11 11:16:29;;;;;;;2.78;1.20;;;17.20;55.20;;;;;;5051402;28;20052;-68
2022/04/11 11:19:17;;;;;;;1.70;1.00;;;17.50;55.30;;;;;;5050228;28;20055;-69
2022/04/11 11:22:04;;;;;;;1.77;1.13;;;17.20;55.40;;;;;;5051930;28;20099;-70
2022/04/11 11:24:30;;;;;;;2.92;1.08;;;17.60;55.70;;;;;;5050487;28;20059;-69
2022/04/11 11:26:59;;;;;;;2.10;1.20;;;17.00;48.30;;;;;;5050551;28;20147;-68
2022/04/11 11:29:27;;;;;;;2.60;1.20;;;16.80;54.90;;;;;;5041095;28;20107;-67
2022/04/11 11:31:56;;;;;;;3.08;1.20;;;17.20;55.60;;;;;;5044675;28;20041;-69
2022/04/11 11:34:24;;;;;;;1.98;1.20;;;16.20;54.70;;;;;;5042981;28;20509;-71
2022/04/11 11:36:53;;;;;;;3.67;1.02;;;;;;;;;;5040231;28;20046;-71
2022/04/11 11:39:21;;;;;;;3.22;1.20;;;17.20;51.90;;;;;;5037283;28;20414;-69
2022/04/11 11:41:48;;;;;;;4.10;1.30;;;17.00;48.30;;;;;;5042687;28;20123;-70
2022/04/11 11:44:15;;;;;;;1.92;1.20;;;16.80;55.20;;;;;;5044023;28;20055;-70
2022/04/11 11:46:51;;;;;;;2.70;1.40;;;16.30;48.80;;;;;;5045243;28;20045;-69
2022/04/11 11:49:20;;;;;;;1.85;1.20;;;17.00;54.70;;;;;;5045534;28;20509;-70
2022/04/11 11:51:46;;;;;;;2.58;1.13;;;16.80;54.80;;;;;;5042506;28;20060;-69
2022/04/11 11:54:13;;;;;;;4.20;1.20;;;16.90;54.90;;;;;;5042164;28;20049;-69
2022/04/11 11:56:41;;;;;;;2.30;1.10;;;16.90;48.40;;;;;;5037691;28;20041;-70
2022/04/11 11:59:08;;;;;;;4.05;1.35;;;16.90;55.20;;;;;;5048843;28;20049;-70
2022/04/11 12:01:35;;;;;;;2.13;1.20;;;17.10;55.30;;;;;;5040441;28;20104;-70
2022/04/11 12:04:18;;;;;;;2.45;1.08;;;16.90;55.00;;;;;;5026615;28;20063;-69
2022/04/11 12:06:46;;;;;;;2.10;1.20;;;17.10;55.20;;;;;;5043412;28;20049;-70
2022/04/11 12:09:13;;;;;;;2.00;1.20;;;17.20;55.40;;;;;;5041070;28;20397;-69
2022/04/11 12:11:40;;;;;;;3.38;1.10;;;;;;;;;;5034709;28;20516;-70
2022/04/11 12:14:08;;;;;;;3.03;1.05;;;17.10;55.20;;;;;;5034012;28;20049;-71
2022/04/11 12:16:36;;;;;;;1.27;1.00;;;15.80;50.90;;;;;;5035775;28;20084;-69
2022/04/11 12:19:03;;;;;;;2.28;1.13;;;16.90;48.50;;;;;;5053725;28;20059;-69
2022/04/11 12:21:31;;;;;;;2.08;1.00;;;17.10;55.70;;;;;;5053374;28;20053;-70
2022/04/11 12:23:59;;;;;;;3.90;1.20;;;16.80;55.30;;;;;;5054816;28;20063;-69
2022/04/11 12:26:27;;;;;;;2.22;1.20;;;16.70;55.30;;;;;;5054818;28;20505;-69
2022/04/11 12:28:54;;;;;;;1.85;1.10;;;17.20;55.90;;;;;;5054408;28;20087;-69
2022/04/11 12:31:22;;;;;;;2.70;1.30;;;17.10;55.80;;;;;;5054529;28;20047;-69
2022/04/11 12:33:49;;;;;;;2.60;1.50;;;17.30;55.90;;;;;;5042822;28;20457;-71
2022/04/11 12:36:17;;;;;;;2.05;1.08;;;17.00;55.80;;;;;;5036074;28;20134;-70
2022/04/11 12:38:45;;;;;;;2.00;1.20;;;17.40;55.60;;;;;;5044911;28;20128;-69
2022/04/11 12:41:30;;;;;;;1.95;1.15;;;17.20;50.90;;;;;;5041642;28;20072;-69
2022/04/11 12:44:21;;;;;;;2.08;1.20;;;17.30;56.40;;;;;;5045836;28;20413;-70
2022/04/11 12:46:48;;;;;;;5.53;1.38;;;17.30;55.70;;;;;;5033986;28;20056;-70
2022/04/11 12:49:16;;;;;;;1.50;1.23;;;16.90;48.80;;;;;;5049997;28;20052;-70
2022/04/11 12:51:43;;;;;;;1.38;1.05;;;17.70;55.90;;;;;;5033097;28;20063;-71
2022/04/11 12:54:11;;;;;;;2.30;1.27;;;16.90;48.70;;;;;;5034148;28;20049;-70
2022/04/11 12:56:40;;;;;;;3.60;1.30;;;16.00;48.70;;;;;;5045234;28;20132;-71
2022/04/11 12:59:07;;;;;;;2.75;1.42;;;16.90;55.30;;;;;;5043311;28;20064;-72
2022/04/11 13:01:57;;;;;;;3.63;1.30;;;17.10;50.50;;;;;;5043587;28;20136;-71
2022/04/11 13:04:24;;;;;;;2.13;1.42;;;16.60;52.90;;;;;;5040759;28;20045;-70
2022/04/11 13:06:51;;;;;;;3.10;1.42;;;16.90;55.70;;;;;;5042299;28;20071;-70
2022/04/11 13:09:18;;;;;;;1.83;1.30;;;16.80;49.00;;;;;;5043114;28;20049;-69
2022/04/11 13:11:47;;;;;;;3.53;1.13;;;16.90;55.90;;;;;;5044179;28;20068;-69